Lapeer, Michigan
Current Conditions -  °F | °C
As of 12:54 PM on Saturday 25 Oct 2014 (Local Time) from KD95 Reporting Station
Broken Clouds Broken Clouds  
Wind Chill: 61°   Ceiling: 2200
Heat Index: 61°   Visibility: 10mi
Dew Point: 49°   Wind: 14mph
Humidity: 63%   Direction: 280°W
Pressure: 29.76"   Gusts: 18mph
Location:  43.05°N, 83.31°W
Report Text: KD95 251654Z AUTO 28012G16KT 10SM BKN022 BKN029 16/09 A2976 RMK AO2 T01630093
Loading
Personal Weather Stations






























Interactive Weather Map
Tropical Storm Tracking
New forecast layout! Learn more

10-Day Weather Forecast

Advertisements
Track Severe Weather on mobile